Time;durP1;ratioP1;P1;durP2;ratioP2;P2;SDS_P1;SDS_P2;PMS_P1;PMS_P2;Temp;Humidity;BMP_temperature;BMP_pressure;BME280_temperature;BME280_humidity;BME280_pressure;Samples;Min_cycle;Max_cycle;Signal;HPM_P1;HPM_P2
2023/01/28 00:02:24;;;;;;;4.30;2.78;;;;;;;-0.53;100.00;102864.13;4972295;28;20214;-41
2023/01/28 00:04:50;;;;;;;3.67;2.20;;;;;;;-0.50;100.00;102859.88;4972413;28;20197;-43
2023/01/28 00:07:16;;;;;;;6.07;4.18;;;;;;;-0.64;100.00;102858.41;4971890;28;20625;-44
2023/01/28 00:09:41;;;;;;;5.50;4.28;;;;;;;-0.66;100.00;102862.72;4974596;28;20213;-45
2023/01/28 00:12:06;;;;;;;4.60;3.45;;;;;;;-0.62;100.00;102856.75;4974548;28;20197;-41
2023/01/28 00:14:32;;;;;;;6.97;3.55;;;;;;;-0.58;100.00;102856.03;4971690;28;20463;-43
2023/01/28 00:16:58;;;;;;;4.68;3.13;;;;;;;-0.54;100.00;102868.50;4971977;28;20305;-44
2023/01/28 00:19:23;;;;;;;3.35;2.78;;;;;;;-0.49;100.00;102869.56;4973277;28;20240;-44
2023/01/28 00:21:49;;;;;;;3.85;3.15;;;;;;;-0.48;100.00;102874.00;4971815;28;20226;-44
2023/01/28 00:24:14;;;;;;;4.75;3.00;;;;;;;-0.49;100.00;102859.03;4973113;28;20185;-43
2023/01/28 00:26:40;;;;;;;3.25;2.65;;;;;;;-0.57;100.00;102867.44;4972070;28;20600;-42
2023/01/28 00:29:06;;;;;;;4.53;2.95;;;;;;;-0.50;100.00;102867.78;4972166;28;20222;-43
2023/01/28 00:31:33;;;;;;;4.68;2.88;;;;;;;-0.49;100.00;102860.78;4969828;28;20174;-42
2023/01/28 00:33:59;;;;;;;4.28;3.10;;;;;;;-0.45;100.00;102871.47;4985600;28;20190;-42
2023/01/28 00:36:25;;;;;;;3.97;3.40;;;;;;;-0.38;100.00;102866.47;4971927;28;20672;-45
2023/01/28 00:38:57;;;;;;;3.60;2.80;;;;;;;-0.42;100.00;102866.34;4978584;28;20189;-43
2023/01/28 00:41:25;;;;;;;5.47;3.70;;;;;;;-0.47;100.00;102867.88;4975454;28;20216;-44
2023/01/28 00:43:52;;;;;;;4.45;3.40;;;;;;;-0.39;100.00;102855.03;4982865;28;20220;-42
2023/01/28 00:46:19;;;;;;;5.32;3.38;;;;;;;-0.33;100.00;102859.63;4970879;28;20209;-43
2023/01/28 00:48:45;;;;;;;3.58;3.13;;;;;;;-0.34;100.00;102863.13;4972029;28;20201;-42
2023/01/28 00:51:14;;;;;;;3.35;3.05;;;;;;;-0.31;100.00;102855.31;4982907;28;20185;-40
2023/01/28 00:53:40;;;;;;;4.80;3.83;;;;;;;-0.35;100.00;102848.13;4969614;28;20688;-43
2023/01/28 00:56:07;;;;;;;5.22;3.53;;;;;;;-0.31;100.00;102840.41;4972266;28;20208;-45
2023/01/28 00:58:33;;;;;;;4.15;3.20;;;;;;;-0.29;100.00;102844.00;4971257;28;20653;-45
2023/01/28 01:01:20;;;;;;;4.72;3.50;;;;;;;-0.23;100.00;102835.47;4969949;28;20197;-42
2023/01/28 01:03:46;;;;;;;4.93;3.17;;;;;;;-0.24;100.00;102849.44;4960378;28;20204;-44
2023/01/28 01:06:14;;;;;;;5.43;3.67;;;;;;;-0.19;100.00;102837.38;4975584;28;20182;-43
2023/01/28 01:08:41;;;;;;;4.10;3.80;;;;;;;-0.23;100.00;102852.16;4970959;28;20237;-43
2023/01/28 01:11:09;;;;;;;3.95;3.58;;;;;;;-0.25;100.00;102863.47;4971391;28;20245;-45
2023/01/28 01:13:35;;;;;;;3.67;3.28;;;;;;;-0.22;100.00;102863.56;4971236;28;20190;-42
2023/01/28 01:16:10;;;;;;;4.70;3.33;;;;;;;-0.27;100.00;102863.41;4970818;28;20326;-44
2023/01/28 01:18:40;;;;;;;4.88;3.67;;;;;;;-0.37;100.00;102855.06;4969369;28;20241;-42
2023/01/28 01:21:27;;;;;;;3.42;3.00;;;;;;;-0.34;100.00;102847.31;4970577;28;20194;-44
2023/01/28 01:23:53;;;;;;;3.63;2.60;;;;;;;-0.38;100.00;102854.19;4943163;28;20194;-44
2023/01/28 01:26:18;;;;;;;4.20;2.40;;;;;;;-0.39;100.00;102856.75;4969628;28;20568;-42
2023/01/28 01:28:44;;;;;;;3.13;2.42;;;;;;;-0.38;100.00;102853.31;4970477;28;20196;-43
2023/01/28 01:31:15;;;;;;;4.40;2.88;;;;;;;-0.41;100.00;102838.28;4970602;28;20637;-43
2023/01/28 01:33:41;;;;;;;3.17;2.65;;;;;;;-0.38;100.00;102835.75;4969681;28;20216;-42
2023/01/28 01:36:08;;;;;;;4.60;3.13;;;;;;;-0.49;100.00;102831.81;4973546;28;20193;-46
2023/01/28 01:38:35;;;;;;;7.25;3.17;;;;;;;-0.53;100.00;102829.88;4979587;28;20549;-44
2023/01/28 01:41:02;;;;;;;5.63;3.80;;;;;;;-0.61;100.00;102824.34;4970568;28;20178;-44
2023/01/28 01:43:47;;;;;;;5.35;3.15;;;;;;;-0.57;100.00;102825.34;4970690;28;20728;-43
2023/01/28 01:46:16;;;;;;;4.75;3.10;;;;;;;-0.59;100.00;102819.09;4970333;28;20202;-43
2023/01/28 01:48:43;;;;;;;3.33;2.92;;;;;;;-0.81;100.00;102815.59;4972745;28;20328;-41
2023/01/28 01:51:18;;;;;;;3.40;3.03;;;;;;;-0.95;100.00;102808.91;4971354;28;20181;-44
2023/01/28 01:53:46;;;;;;;4.15;2.90;;;;;;;-0.96;100.00;102807.09;4957036;28;20190;-43
2023/01/28 01:56:17;;;;;;;4.20;3.15;;;;;;;-0.90;100.00;102816.13;4969355;28;20648;-43
2023/01/28 01:58:48;;;;;;;3.30;3.00;;;;;;;-0.91;100.00;102822.25;4984221;28;20180;-41
2023/01/28 02:01:14;;;;;;;5.05;3.40;;;;;;;-0.98;100.00;102809.69;4978082;28;20194;-45
2023/01/28 02:03:54;;;;;;;3.95;3.58;;;;;;;-0.98;100.00;102814.06;4970904;28;20190;-42
2023/01/28 02:06:21;;;;;;;4.00;3.63;;;;;;;-1.12;100.00;102802.94;4968953;28;20561;-41
2023/01/28 02:08:46;;;;;;;3.78;3.38;;;;;;;-1.12;100.00;102814.34;4970641;28;20184;-43
2023/01/28 02:11:15;;;;;;;4.15;3.55;;;;;;;-1.12;100.00;102810.84;4967055;28;20667;-44
2023/01/28 02:13:47;;;;;;;5.40;3.65;;;;;;;-1.25;100.00;102812.03;4969613;28;20190;-43
2023/01/28 02:16:13;;;;;;;3.63;3.33;;;;;;;-1.41;100.00;102828.91;4970661;28;20197;-42
2023/01/28 02:18:39;;;;;;;3.58;2.67;;;;;;;-1.40;100.00;102825.47;4969103;28;20200;-43
2023/01/28 02:21:13;;;;;;;3.65;3.10;;;;;;;-1.41;100.00;102828.03;4976185;28;20644;-44
2023/01/28 02:23:59;;;;;;;3.53;3.22;;;;;;;-1.39;100.00;102814.09;4967678;28;20205;-45
2023/01/28 02:26:39;;;;;;;3.15;2.95;;;;;;;-1.36;100.00;102811.59;4976169;28;20245;-45
2023/01/28 02:29:25;;;;;;;3.70;3.30;;;;;;;-1.46;100.00;102825.19;4983014;28;20666;-46
2023/01/28 02:32:04;;;;;;;4.55;2.90;;;;;;;-1.78;100.00;102822.03;4970070;28;20560;-46
2023/01/28 02:38:30;;;;;;;3.20;3.00;;;;;;;-1.64;100.00;102825.28;4963964;28;20233;-47
2023/01/28 02:41:08;;;;;;;3.38;3.08;;;;;;;-1.65;100.00;102812.97;4969446;28;20661;-46
2023/01/28 02:43:41;;;;;;;3.63;2.80;;;;;;;-1.66;100.00;102814.72;4963831;28;20213;-45
2023/01/28 02:49:05;;;;;;;3.42;2.92;;;;;;;-1.84;100.00;102826.13;4969060;28;20182;-45
2023/01/28 02:51:46;;;;;;;3.28;2.90;;;;;;;-1.83;100.00;102825.31;4970387;28;20187;-46
2023/01/28 02:54:29;;;;;;;3.97;3.28;;;;;;;-1.79;100.00;102825.50;4957261;28;20693;-47
2023/01/28 02:57:33;;;;;;;4.30;3.25;;;;;;;-1.85;100.00;102819.97;4969042;28;20202;-45
2023/01/28 03:00:24;;;;;;;4.18;2.85;;;;;;;-1.89;100.00;102808.41;4968807;28;20190;-46
2023/01/28 03:03:12;;;;;;;4.38;3.47;;;;;;;-1.91;100.00;102824.94;4969829;28;20218;-45
2023/01/28 03:06:02;;;;;;;4.10;3.45;;;;;;;-1.95;100.00;102829.16;4970712;28;20310;-46
2023/01/28 03:36:49;;;;;;;3.67;3.35;;;;;;;-2.02;100.00;102816.56;4971966;28;20220;-45
2023/01/28 03:39:33;;;;;;;4.85;3.97;;;;;;;-2.03;100.00;102813.88;4975946;28;20197;-47
2023/01/28 03:42:09;;;;;;;5.80;3.72;;;;;;;-2.05;100.00;102805.06;4974720;28;20340;-47
2023/01/28 03:47:18;;;;;;;5.53;3.75;;;;;;;-2.12;100.00;102803.84;4987910;28;20215;-47
2023/01/28 03:49:47;;;;;;;6.65;3.88;;;;;;;-2.21;100.00;102806.94;4963141;28;20313;-46
2023/01/28 03:52:27;;;;;;;4.35;3.60;;;;;;;-2.23;100.00;102803.38;4975907;28;20196;-48
2023/01/28 03:55:12;;;;;;;4.47;4.07;;;;;;;-2.22;100.00;102802.53;4971495;28;20194;-47
2023/01/28 03:57:38;;;;;;;3.63;3.33;;;;;;;-2.19;100.00;102807.03;4972200;28;20301;-47
2023/01/28 04:00:05;;;;;;;4.35;3.95;;;;;;;-2.19;100.00;102810.53;4976693;28;20192;-46
2023/01/28 04:02:39;;;;;;;6.55;4.40;;;;;;;-2.22;100.00;102813.03;4971857;28;20190;-46
2023/01/28 04:05:11;;;;;;;5.97;4.30;;;;;;;-2.22;100.00;102813.03;4974046;28;20182;-45
2023/01/28 04:07:40;;;;;;;5.18;4.30;;;;;;;-2.26;100.00;102816.34;4971972;28;20198;-48
2023/01/28 04:10:29;;;;;;;4.68;3.85;;;;;;;-2.28;100.00;102824.16;4968541;28;20198;-47
2023/01/28 04:13:13;;;;;;;5.20;4.40;;;;;;;-2.36;100.00;102819.38;4972146;28;20193;-46
2023/01/28 04:15:42;;;;;;;5.85;4.13;;;;;;;-2.32;100.00;102822.25;4973394;28;20181;-47
2023/01/28 04:18:08;;;;;;;5.50;4.10;;;;;;;-2.31;100.00;102831.00;4985633;28;20207;-46
2023/01/28 04:20:36;;;;;;;5.25;4.63;;;;;;;-2.29;100.00;102835.50;4975496;28;20174;-47
2023/01/28 04:23:03;;;;;;;5.13;4.60;;;;;;;-2.36;100.00;102829.88;4982879;28;20704;-46
2023/01/28 04:25:30;;;;;;;5.00;4.47;;;;;;;-2.29;100.00;102831.97;4960473;28;20266;-47
2023/01/28 04:27:56;;;;;;;4.30;3.90;;;;;;;-2.26;100.00;102832.09;4953438;28;20198;-48
2023/01/28 04:30:25;;;;;;;5.15;3.90;;;;;;;-2.27;100.00;102832.94;4977935;28;20186;-45
2023/01/28 04:33:19;;;;;;;5.50;4.78;;;;;;;-2.29;100.00;102827.63;4974173;28;20664;-46
2023/01/28 04:35:53;;;;;;;4.30;3.90;;;;;;;-2.45;100.00;102825.09;4971701;28;20189;-46
2023/01/28 04:38:34;;;;;;;4.43;4.03;;;;;;;-2.40;100.00;102823.59;4970685;28;20197;-47
2023/01/28 04:41:05;;;;;;;6.00;4.20;;;;;;;-2.47;100.00;102808.41;4978464;28;20252;-48
2023/01/28 04:43:33;;;;;;;5.70;4.40;;;;;;;-2.44;100.00;102808.53;4968303;28;20222;-46
2023/01/28 04:46:23;;;;;;;4.85;4.35;;;;;;;-2.47;100.00;102812.72;4972117;28;20178;-46
2023/01/28 04:48:54;;;;;;;7.88;4.50;;;;;;;-2.46;100.00;102809.28;4974722;28;20200;-46
2023/01/28 04:51:50;;;;;;;6.18;4.90;;;;;;;-2.50;100.00;102806.50;4972892;28;20649;-46
2023/01/28 04:54:40;;;;;;;6.97;5.30;;;;;;;-2.45;100.00;102798.84;4969686;28;20174;-46
2023/01/28 04:57:05;;;;;;;6.88;5.50;;;;;;;-2.44;100.00;102805.91;4970214;28;20229;-46
2023/01/28 04:59:33;;;;;;;5.90;5.32;;;;;;;-2.46;100.00;102796.16;4977210;28;20216;-47
2023/01/28 05:02:00;;;;;;;7.43;4.80;;;;;;;-2.40;100.00;102791.22;4970717;28;20194;-45
2023/01/28 05:04:25;;;;;;;8.00;5.07;;;;;;;-2.38;100.00;102785.19;4971542;28;20190;-45
2023/01/28 05:06:51;;;;;;;8.73;6.65;;;;;;;-2.46;100.00;102778.69;4972559;28;20186;-46
2023/01/28 05:09:21;;;;;;;8.45;6.55;;;;;;;-2.59;100.00;102765.81;4974161;28;20189;-46
2023/01/28 05:11:49;;;;;;;8.75;6.43;;;;;;;-2.50;100.00;102755.75;4974830;28;20181;-45
2023/01/28 05:14:15;;;;;;;9.07;4.97;;;;;;;-2.51;100.00;102764.47;4969708;28;20190;-46
2023/01/28 05:16:44;;;;;;;8.60;6.40;;;;;;;-2.58;100.00;102764.97;4977725;28;20585;-46
2023/01/28 05:19:10;;;;;;;9.05;5.93;;;;;;;-2.77;100.00;102748.38;4968234;28;20272;-47
2023/01/28 05:21:39;;;;;;;8.32;5.20;;;;;;;-2.95;100.00;102732.69;4974538;28;20178;-48
2023/01/28 05:24:14;;;;;;;7.18;5.40;;;;;;;-2.88;100.00;102732.97;4969345;28;20198;-48
2023/01/28 05:26:42;;;;;;;6.75;6.03;;;;;;;-2.79;100.00;102755.28;4984117;28;20198;-46
2023/01/28 05:29:09;;;;;;;6.18;5.57;;;;;;;-2.84;100.00;102745.38;4972874;28;20178;-46
2023/01/28 05:31:34;;;;;;;8.63;6.10;;;;;;;-2.93;100.00;102745.84;4970285;28;20589;-48
2023/01/28 05:34:00;;;;;;;6.50;5.90;;;;;;;-3.01;100.00;102748.13;4974868;28;20683;-47
2023/01/28 05:36:25;;;;;;;8.00;6.20;;;;;;;-3.12;100.00;102733.59;4981419;28;20252;-45
2023/01/28 05:38:53;;;;;;;7.97;6.47;;;;;;;-3.13;100.00;102732.69;4968011;28;20649;-48
2023/01/28 05:41:18;;;;;;;6.60;5.55;;;;;;;-3.02;100.00;102730.56;4975379;28;20170;-46
2023/01/28 05:43:46;;;;;;;6.90;6.10;;;;;;;-2.96;100.00;102736.09;4973765;28;20298;-44
2023/01/28 05:46:50;;;;;;;6.72;5.55;;;;;;;-2.92;100.00;102734.53;4979623;28;20650;-48
2023/01/28 05:49:43;;;;;;;7.00;5.82;;;;;;;-2.93;100.00;102730.09;4972324;28;20196;-47
2023/01/28 05:52:28;;;;;;;6.82;6.18;;;;;;;-2.97;100.00;102739.56;4969218;28;20200;-47
2023/01/28 05:54:56;;;;;;;9.77;6.88;;;;;;;-2.96;100.00;102735.22;4968379;28;20190;-45
2023/01/28 05:57:23;;;;;;;7.07;6.10;;;;;;;-2.94;100.00;102744.94;4968035;28;20269;-44
2023/01/28 05:59:49;;;;;;;7.05;6.05;;;;;;;-2.93;100.00;102733.66;4971243;28;20181;-43
2023/01/28 06:02:15;;;;;;;10.07;6.00;;;;;;;-3.01;100.00;102752.47;4968071;28;20297;-45
2023/01/28 06:04:41;;;;;;;8.35;6.70;;;;;;;-3.09;100.00;102756.44;4976820;28;20649;-44
2023/01/28 06:07:08;;;;;;;8.27;6.28;;;;;;;-3.06;100.00;102754.88;4972539;28;20639;-43
2023/01/28 06:09:35;;;;;;;7.22;5.95;;;;;;;-3.12;100.00;102765.06;4969069;28;20178;-42
2023/01/28 06:12:01;;;;;;;7.53;6.35;;;;;;;-3.03;100.00;102757.63;4970132;28;20189;-44
2023/01/28 06:14:29;;;;;;;9.07;6.32;;;;;;;-3.10;100.00;102755.53;4974078;28;20186;-42
2023/01/28 06:17:24;;;;;;;7.35;6.43;;;;;;;-2.99;100.00;102770.06;4952018;28;20605;-43
2023/01/28 06:20:07;;;;;;;7.47;6.20;;;;;;;-2.99;100.00;102762.19;4971974;28;20193;-43
2023/01/28 06:22:35;;;;;;;8.63;6.55;;;;;;;-3.00;100.00;102781.38;4968751;28;20202;-46
2023/01/28 06:25:01;;;;;;;7.65;6.38;;;;;;;-2.95;100.00;102797.34;4972691;28;20244;-41
2023/01/28 06:27:26;;;;;;;9.82;7.32;;;;;;;-2.95;100.00;102779.88;4969213;28;20203;-42
2023/01/28 06:29:52;;;;;;;8.52;6.93;;;;;;;-2.93;100.00;102787.81;4970093;28;20182;-43
2023/01/28 06:32:18;;;;;;;10.25;7.55;;;;;;;-2.90;100.00;102788.84;4970192;28;20720;-43
2023/01/28 06:34:44;;;;;;;8.43;7.25;;;;;;;-2.99;100.00;102798.03;4970051;28;20664;-43
2023/01/28 06:37:12;;;;;;;10.57;8.20;;;;;;;-2.95;100.00;102790.38;4970205;28;20256;-42
2023/01/28 06:39:38;;;;;;;11.05;8.02;;;;;;;-2.93;100.00;102782.56;4971629;28;20264;-43
2023/01/28 06:42:03;;;;;;;13.15;7.88;;;;;;;-2.94;100.00;102776.41;4974915;28;20249;-44
2023/01/28 06:44:29;;;;;;;9.57;7.28;;;;;;;-3.05;100.00;102790.75;4972737;28;20637;-43
2023/01/28 06:46:54;;;;;;;11.07;8.65;;;;;;;-3.02;100.00;102788.25;4973690;28;20700;-43
2023/01/28 06:49:20;;;;;;;10.52;8.00;;;;;;;-3.02;100.00;102788.25;4974231;28;20201;-43
2023/01/28 06:51:46;;;;;;;12.70;8.50;;;;;;;-3.04;100.00;102774.19;4972074;28;20197;-46
2023/01/28 06:54:12;;;;;;;14.52;8.68;;;;;;;-2.97;100.00;102780.63;4973983;28;20193;-46
2023/01/28 06:56:37;;;;;;;12.80;8.85;;;;;;;-2.92;100.00;102781.75;4974134;28;20198;-45
2023/01/28 06:59:03;;;;;;;14.82;8.82;;;;;;;-2.97;100.00;102791.13;4973986;28;20186;-45
2023/01/28 07:01:28;;;;;;;11.95;8.43;;;;;;;-2.96;100.00;102792.91;4973327;28;20190;-43
2023/01/28 07:03:55;;;;;;;13.80;8.15;;;;;;;-2.91;100.00;102783.53;4973912;28;20213;-44
2023/01/28 07:06:20;;;;;;;13.18;9.07;;;;;;;-2.87;100.00;102792.47;4972874;28;20272;-45
2023/01/28 07:08:46;;;;;;;12.95;8.45;;;;;;;-2.81;100.00;102798.00;4972112;28;20625;-44
2023/01/28 07:11:12;;;;;;;11.23;8.65;;;;;;;-2.79;100.00;102792.00;4972842;28;20732;-45
2023/01/28 07:13:37;;;;;;;13.27;8.90;;;;;;;-2.76;100.00;102796.50;4973048;28;20272;-43
2023/01/28 07:16:03;;;;;;;14.57;9.55;;;;;;;-2.76;100.00;102799.13;4972348;28;20193;-44
2023/01/28 07:18:29;;;;;;;13.88;9.43;;;;;;;-2.76;100.00;102797.38;4970943;28;20233;-45
2023/01/28 07:20:55;;;;;;;14.20;10.38;;;;;;;-2.80;100.00;102794.53;4971558;28;20177;-43
2023/01/28 07:23:20;;;;;;;16.80;9.50;;;;;;;-2.72;100.00;102801.06;4973680;28;20240;-44
2023/01/28 07:25:46;;;;;;;12.23;8.52;;;;;;;-2.61;100.00;102786.72;4971891;28;20189;-45
2023/01/28 07:28:12;;;;;;;13.05;9.60;;;;;;;-2.62;100.00;102791.94;4971864;28;20647;-43
2023/01/28 07:30:37;;;;;;;16.05;9.45;;;;;;;-2.52;100.00;102799.38;4972969;28;20403;-43
2023/01/28 07:33:03;;;;;;;12.55;9.48;;;;;;;-2.47;100.00;102805.78;4973809;28;20197;-45
2023/01/28 07:35:28;;;;;;;11.00;9.77;;;;;;;-2.44;100.00;102795.41;4973489;28;20656;-45
2023/01/28 07:37:59;;;;;;;13.70;9.25;;;;;;;-2.41;100.00;102794.63;4972435;28;20226;-45
2023/01/28 07:40:25;;;;;;;13.50;9.35;;;;;;;-2.36;100.00;102806.25;4972957;28;20550;-44
2023/01/28 07:42:52;;;;;;;14.75;10.30;;;;;;;-2.31;100.00;102803.00;4972622;28;20190;-45
2023/01/28 07:45:21;;;;;;;15.93;11.20;;;;;;;-2.23;100.00;102799.84;4971084;28;20219;-45
2023/01/28 07:47:57;;;;;;;11.68;9.48;;;;;;;-2.14;100.00;102802.91;4972420;28;20669;-46
2023/01/28 07:50:24;;;;;;;13.50;9.30;;;;;;;-2.08;100.00;102804.09;4975972;28;20264;-43
2023/01/28 07:52:49;;;;;;;12.32;9.60;;;;;;;-2.02;100.00;102798.19;4971901;28;20581;-44
2023/01/28 07:55:15;;;;;;;12.57;9.07;;;;;;;-2.01;100.00;102799.09;4971968;28;20186;-46
2023/01/28 07:57:48;;;;;;;12.05;8.77;;;;;;;-1.91;100.00;102812.69;4976560;28;20214;-42
2023/01/28 08:00:14;;;;;;;13.23;8.95;;;;;;;-1.87;100.00;102804.13;4980664;28;20190;-45
2023/01/28 08:02:39;;;;;;;9.43;8.52;;;;;;;-1.72;100.00;102808.28;4971106;28;20540;-44
2023/01/28 08:05:05;;;;;;;12.18;8.77;;;;;;;-1.79;100.00;102815.00;4972025;28;20176;-46
2023/01/28 08:07:31;;;;;;;12.88;8.93;;;;;;;-1.78;100.00;102800.13;4972243;28;20202;-45
2023/01/28 08:09:56;;;;;;;14.57;9.25;;;;;;;-1.73;100.00;102825.78;4973568;28;20211;-42
2023/01/28 08:12:22;;;;;;;10.52;7.82;;;;;;;-1.71;100.00;102818.84;4973027;28;20186;-45
2023/01/28 08:14:47;;;;;;;11.35;8.15;;;;;;;-1.61;100.00;102827.16;4972481;28;20209;-44
2023/01/28 08:17:13;;;;;;;9.43;7.55;;;;;;;-1.55;100.00;102830.03;4973640;28;20552;-43
2023/01/28 08:19:38;;;;;;;9.07;7.55;;;;;;;-1.55;100.00;102835.28;4976745;28;20186;-44
2023/01/28 08:22:03;;;;;;;12.68;8.45;;;;;;;-1.49;100.00;102814.53;4972035;28;20202;-42
2023/01/28 08:24:29;;;;;;;13.48;8.65;;;;;;;-1.49;100.00;102822.41;4970696;28;20220;-43
2023/01/28 08:26:54;;;;;;;10.18;8.85;;;;;;;-1.49;100.00;102825.97;4971683;28;20189;-46
2023/01/28 08:29:20;;;;;;;11.13;8.77;;;;;;;-1.33;100.00;102821.38;4971806;28;20185;-42
2023/01/28 08:31:45;;;;;;;12.00;9.15;;;;;;;-1.34;100.00;102814.28;4971640;28;20185;-45
2023/01/28 08:34:11;;;;;;;9.98;8.90;;;;;;;-1.26;100.00;102819.03;4971844;28;20178;-44
2023/01/28 08:36:36;;;;;;;13.00;9.82;;;;;;;-1.21;100.00;102823.59;4971696;28;20218;-43
2023/01/28 08:39:02;;;;;;;13.68;9.30;;;;;;;-1.15;100.00;102839.66;4971793;28;20217;-45
2023/01/28 08:41:29;;;;;;;14.30;8.93;;;;;;;-1.11;100.00;102845.09;4972569;28;20174;-46
2023/01/28 08:43:54;;;;;;;14.48;10.07;;;;;;;-1.02;100.00;102838.44;4971880;28;20201;-43
2023/01/28 08:46:19;;;;;;;11.55;9.80;;;;;;;-1.04;100.00;102834.00;4971615;28;20228;-47
2023/01/28 08:48:45;;;;;;;13.57;10.65;;;;;;;-1.01;100.00;102837.59;4975307;28;20225;-44
2023/01/28 08:51:10;;;;;;;14.95;11.75;;;;;;;-0.97;100.00;102844.78;4971685;28;20228;-44
2023/01/28 08:53:36;;;;;;;17.50;11.45;;;;;;;-0.90;100.00;102841.56;4971101;28;20190;-43
2023/01/28 08:56:01;;;;;;;16.88;12.82;;;;;;;-0.92;100.00;102833.63;4971711;28;20181;-43
2023/01/28 08:58:27;;;;;;;15.70;12.30;;;;;;;-0.87;100.00;102831.19;4972169;28;20319;-43
2023/01/28 09:00:52;;;;;;;13.20;11.82;;;;;;;-0.82;100.00;102834.00;4972112;28;20190;-44
2023/01/28 09:03:18;;;;;;;13.85;12.32;;;;;;;-0.76;100.00;102823.72;4977817;28;20206;-44
2023/01/28 09:05:44;;;;;;;15.02;12.43;;;;;;;-0.71;100.00;102811.63;4971057;28;20695;-44
2023/01/28 09:08:14;;;;;;;14.77;12.13;;;;;;;-0.66;100.00;102816.25;4970967;28;20587;-44
2023/01/28 09:10:40;;;;;;;16.92;12.60;;;;;;;-0.58;100.00;102834.97;4971332;28;20178;-44
2023/01/28 09:13:13;;;;;;;14.57;12.98;;;;;;;-0.65;100.00;102831.19;4971204;28;20653;-43
2023/01/28 09:15:38;;;;;;;14.88;12.55;;;;;;;-0.72;100.00;102822.97;4968599;28;20189;-45
2023/01/28 09:18:04;;;;;;;15.38;12.55;;;;;;;-0.75;100.00;102813.22;4967737;28;20272;-43
2023/01/28 09:20:31;;;;;;;17.58;12.40;;;;;;;-0.80;100.00;102792.84;4970032;28;20204;-44
2023/01/28 09:22:58;;;;;;;17.83;12.80;;;;;;;-0.72;100.00;102797.59;4971088;28;20201;-43
2023/01/28 09:25:23;;;;;;;14.10;12.38;;;;;;;-0.71;100.00;102804.63;4970583;28;20185;-44
2023/01/28 09:27:49;;;;;;;16.30;13.27;;;;;;;-0.63;100.00;102797.94;4970887;28;20276;-44
2023/01/28 09:30:15;;;;;;;15.77;13.10;;;;;;;-0.68;100.00;102796.88;4970037;28;20211;-43
2023/01/28 09:32:40;;;;;;;15.95;13.38;;;;;;;-0.59;100.00;102791.06;4969849;28;20166;-43
2023/01/28 09:35:06;;;;;;;16.58;13.85;;;;;;;-0.56;100.00;102793.81;4969477;28;20182;-43
2023/01/28 09:37:32;;;;;;;15.98;13.05;;;;;;;-0.49;100.00;102790.56;4969674;28;20308;-43
2023/01/28 09:39:57;;;;;;;19.65;13.55;;;;;;;-0.50;100.00;102815.13;4969770;28;20201;-42
2023/01/28 09:42:44;;;;;;;14.48;12.77;;;;;;;-0.38;100.00;102809.41;4969311;28;20234;-46
2023/01/28 09:45:15;;;;;;;17.48;13.55;;;;;;;-0.38;100.00;102803.25;4969485;28;20534;-46
2023/01/28 09:47:57;;;;;;;16.63;13.45;;;;;;;-0.38;100.00;102804.16;4969014;28;20550;-46
2023/01/28 09:50:32;;;;;;;15.68;13.27;;;;;;;-0.42;100.00;102805.78;4970236;28;20557;-45
2023/01/28 09:53:13;;;;;;;20.33;13.85;;;;;;;-0.43;100.00;102803.09;4970776;28;20187;-46
2023/01/28 09:55:43;;;;;;;17.90;13.50;;;;;;;-0.34;100.00;102800.81;4969739;28;20218;-45
2023/01/28 09:58:14;;;;;;;17.33;14.52;;;;;;;-0.32;100.00;102792.97;4968007;28;20211;-44
2023/01/28 10:01:01;;;;;;;17.50;15.13;;;;;;;-0.30;100.00;102780.75;4970754;28;20201;-44
2023/01/28 10:03:52;;;;;;;16.88;13.98;;;;;;;-0.32;100.00;102785.97;4971342;28;20324;-43
2023/01/28 10:06:21;;;;;;;17.35;14.73;;;;;;;-0.25;100.00;102773.91;4970138;28;20608;-48
2023/01/28 10:09:11;;;;;;;19.58;15.27;;;;;;;-0.25;100.00;102773.91;4970829;28;20198;-46
2023/01/28 10:11:48;;;;;;;17.20;13.98;;;;;;;-0.25;100.00;102776.56;4970865;28;20177;-49
2023/01/28 10:14:32;;;;;;;20.58;15.10;;;;;;;-0.24;100.00;102754.63;4970938;28;20201;-47
2023/01/28 10:17:19;;;;;;;18.60;15.40;;;;;;;-0.17;100.00;102767.22;4972975;28;20208;-47
2023/01/28 10:20:00;;;;;;;21.38;15.25;;;;;;;-0.10;100.00;102755.16;4973521;28;20251;-48
2023/01/28 10:22:33;;;;;;;19.75;15.57;;;;;;;-0.19;100.00;102765.34;4973958;28;20193;-50
2023/01/28 10:25:05;;;;;;;19.50;14.82;;;;;;;-0.18;100.00;102743.44;4972910;28;20264;-48
2023/01/28 10:27:32;;;;;;;22.77;16.15;;;;;;;-0.24;100.00;102739.75;4977165;28;20306;-46
2023/01/28 10:30:07;;;;;;;19.42;16.00;;;;;;;-0.14;100.00;102719.00;4972601;28;20178;-48
2023/01/28 10:32:37;;;;;;;20.02;16.08;;;;;;;-0.14;100.00;102725.16;4975421;28;20185;-46
2023/01/28 10:35:03;;;;;;;21.58;16.67;;;;;;;-0.15;100.00;102718.09;4973630;28;20224;-47
2023/01/28 10:37:38;;;;;;;21.10;16.63;;;;;;;-0.06;100.00;102718.44;4973305;28;20213;-47
2023/01/28 10:40:06;;;;;;;19.75;15.93;;;;;;;-0.08;100.00;102720.13;4973601;28;20189;-46
2023/01/28 10:42:34;;;;;;;21.10;16.80;;;;;;;-0.01;100.00;102722.13;4974615;28;20299;-47
2023/01/28 10:45:07;;;;;;;22.38;16.77;;;;;;;-0.03;100.00;102704.47;4978606;28;20248;-48
2023/01/28 10:47:45;;;;;;;23.80;16.70;;;;;;;0.00;100.00;102704.59;4973898;28;20241;-47
2023/01/28 10:50:22;;;;;;;21.23;17.05;;;;;;;-0.09;100.00;102696.34;4969412;28;20241;-49
2023/01/28 10:53:07;;;;;;;19.42;17.00;;;;;;;0.03;100.00;102711.72;4973462;28;20182;-46
2023/01/28 10:55:50;;;;;;;20.75;16.67;;;;;;;0.11;100.00;102711.13;4973018;28;20217;-47
2023/01/28 10:58:28;;;;;;;24.33;17.38;;;;;;;0.17;100.00;102691.97;4971250;28;20596;-47
2023/01/28 11:00:58;;;;;;;21.27;17.05;;;;;;;0.22;100.00;102695.69;4972649;28;20758;-50
2023/01/28 11:03:29;;;;;;;20.70;16.58;;;;;;;0.22;100.00;102692.13;4973398;28;20546;-48
2023/01/28 11:05:56;;;;;;;23.20;17.38;;;;;;;0.32;100.00;102700.41;4972858;28;20250;-48
2023/01/28 11:08:24;;;;;;;25.38;17.90;;;;;;;0.42;100.00;102701.63;4973179;28;20206;-48
2023/01/28 11:10:52;;;;;;;19.38;16.17;;;;;;;0.55;100.00;102714.38;4973564;28;20483;-48
2023/01/28 11:13:19;;;;;;;20.48;16.80;;;;;;;0.51;100.00;102696.66;4978720;28;20178;-47
2023/01/28 11:15:53;;;;;;;20.95;17.85;;;;;;;0.64;100.00;102695.34;4972957;28;20178;-48
2023/01/28 11:18:23;;;;;;;18.48;16.52;;;;;;;0.74;100.00;102694.75;4973632;28;20264;-48
2023/01/28 11:21:17;;;;;;;19.45;16.48;;;;;;;0.74;100.00;102685.97;4973010;28;20185;-46
2023/01/28 11:23:50;;;;;;;21.55;17.10;;;;;;;0.64;100.00;102682.16;4966772;28;20672;-49
2023/01/28 11:26:32;;;;;;;20.00;16.15;;;;;;;0.63;100.00;102677.69;4972156;28;20174;-49
2023/01/28 11:28:57;;;;;;;20.17;17.20;;;;;;;0.68;100.00;102688.38;4962524;28;20236;-47
2023/01/28 11:31:24;;;;;;;21.45;17.27;;;;;;;0.60;100.00;102691.69;4973499;28;20264;-47
2023/01/28 11:33:59;;;;;;;23.58;17.70;;;;;;;0.59;100.00;102683.72;4972834;28;20646;-48
2023/01/28 11:36:27;;;;;;;21.73;17.08;;;;;;;0.58;100.00;102687.22;4971408;28;20193;-46
2023/01/28 11:38:56;;;;;;;20.38;17.42;;;;;;;0.41;100.00;102684.91;4972144;28;20190;-48
2023/01/28 11:41:25;;;;;;;20.58;18.08;;;;;;;0.49;100.00;102679.91;4973033;28;20202;-46
2023/01/28 11:43:50;;;;;;;23.17;17.33;;;;;;;0.53;100.00;102676.50;4972512;28;20206;-49
2023/01/28 11:46:19;;;;;;;21.35;17.45;;;;;;;0.35;100.00;102679.44;4972557;28;20261;-47
2023/01/28 11:48:58;;;;;;;20.05;17.63;;;;;;;0.39;100.00;102670.78;4973466;28;20288;-48
2023/01/28 11:51:32;;;;;;;20.88;17.17;;;;;;;0.40;100.00;102677.84;4971017;28;20178;-49
2023/01/28 11:54:07;;;;;;;20.60;17.45;;;;;;;0.39;100.00;102659.31;4971468;28;20174;-49
2023/01/28 11:56:55;;;;;;;22.65;17.55;;;;;;;0.44;100.00;102648.94;4971239;28;20233;-42
2023/01/28 11:59:32;;;;;;;21.98;18.60;;;;;;;0.52;100.00;102647.44;4975923;28;20653;-44
2023/01/28 12:02:35;;;;;;;21.67;18.02;;;;;;;0.58;100.00;102640.63;4974929;28;20170;-45
2023/01/28 12:05:06;;;;;;;24.33;18.48;;;;;;;0.71;100.00;102634.00;4971167;28;20177;-41
2023/01/28 12:07:31;;;;;;;20.58;17.30;;;;;;;0.83;100.00;102636.13;4971554;28;20201;-44